Time;durP1;ratioP1;P1;durP2;ratioP2;P2;SDS_P1;SDS_P2;PMS_P1;PMS_P2;Temp;Humidity;BMP_temperature;BMP_pressure;BME280_temperature;BME280_humidity;BME280_pressure;Samples;Min_cycle;Max_cycle;Signal;HPM_P1;HPM_P2
2021/06/30 00:01:45;;;;;;;3.90;3.50;;;16.50;99.90;;;;;;4954921;28;20652;-44
2021/06/30 00:04:18;;;;;;;3.95;3.58;;;16.50;99.90;;;;;;4955081;28;20246;-45
2021/06/30 00:06:48;;;;;;;3.95;3.63;;;16.40;99.90;;;;;;4954630;28;20231;-47
2021/06/30 00:09:21;;;;;;;3.97;3.42;;;16.40;99.90;;;;;;4954415;28;20247;-46
2021/06/30 00:11:55;;;;;;;4.47;3.20;;;16.40;99.90;;;;;;4954758;28;20636;-44
2021/06/30 00:14:28;;;;;;;3.88;3.13;;;16.40;99.90;;;;;;4954941;28;20218;-44
2021/06/30 00:17:01;;;;;;;3.80;3.38;;;16.40;99.90;;;;;;4954779;28;20555;-45
2021/06/30 00:19:35;;;;;;;3.40;3.20;;;16.30;99.90;;;;;;4954723;28;20266;-42
2021/06/30 00:22:08;;;;;;;4.03;3.72;;;16.30;99.90;;;;;;4954857;28;20211;-41
2021/06/30 00:24:41;;;;;;;3.78;3.47;;;16.30;99.90;;;;;;4954616;28;20282;-42
2021/06/30 00:27:15;;;;;;;3.38;3.17;;;16.20;99.90;;;;;;4954521;28;20231;-42
2021/06/30 00:29:48;;;;;;;3.50;3.22;;;16.20;99.90;;;;;;4954871;28;20214;-42
2021/06/30 00:32:21;;;;;;;4.07;3.70;;;16.20;99.90;;;;;;4954728;28;20280;-42
2021/06/30 00:34:54;;;;;;;3.28;3.08;;;16.20;99.90;;;;;;4954569;28;20289;-44
2021/06/30 00:37:26;;;;;;;3.55;3.25;;;16.20;99.90;;;;;;4954771;28;20266;-42
2021/06/30 00:39:59;;;;;;;5.30;3.65;;;16.10;99.90;;;;;;4954540;28;20269;-45
2021/06/30 00:42:34;;;;;;;7.65;3.65;;;16.10;99.90;;;;;;4954055;28;20706;-42
2021/06/30 00:45:08;;;;;;;3.25;3.05;;;16.10;99.90;;;;;;4954494;28;20203;-42
2021/06/30 00:47:41;;;;;;;3.92;3.53;;;16.10;99.90;;;;;;4954489;28;20226;-45
2021/06/30 00:50:15;;;;;;;3.72;3.45;;;16.10;99.90;;;;;;4954348;28;20208;-42
2021/06/30 00:52:48;;;;;;;3.70;3.40;;;16.10;99.90;;;;;;4954151;28;20647;-42
2021/06/30 00:55:23;;;;;;;3.65;3.33;;;16.00;99.90;;;;;;4954693;28;20274;-41
2021/06/30 00:57:58;;;;;;;5.18;3.80;;;16.00;99.90;;;;;;4954207;28;20210;-43
2021/06/30 01:00:31;;;;;;;7.03;3.80;;;16.10;99.90;;;;;;4954168;28;20215;-42
2021/06/30 01:03:04;;;;;;;6.15;3.63;;;16.00;99.90;;;;;;4954148;28;20754;-43
2021/06/30 01:05:37;;;;;;;4.28;3.88;;;16.00;99.90;;;;;;4954321;28;20294;-43
2021/06/30 01:08:10;;;;;;;5.13;4.38;;;16.00;99.90;;;;;;4954071;28;20287;-43
2021/06/30 01:10:43;;;;;;;3.60;3.30;;;16.00;99.90;;;;;;4954130;28;20203;-42
2021/06/30 01:13:18;;;;;;;3.72;3.50;;;16.00;99.90;;;;;;4953960;28;20667;-43
2021/06/30 01:15:55;;;;;;;4.05;3.65;;;16.00;99.90;;;;;;4954532;28;20213;-43
2021/06/30 01:18:30;;;;;;;5.38;3.92;;;16.00;99.90;;;;;;4954004;28;20687;-44
2021/06/30 01:21:05;;;;;;;2.83;2.63;;;15.90;99.90;;;;;;4954078;28;20269;-46
2021/06/30 01:23:39;;;;;;;2.60;2.40;;;15.90;99.90;;;;;;4953943;28;20267;-41
2021/06/30 01:26:13;;;;;;;3.05;2.75;;;15.80;99.90;;;;;;4953806;28;20281;-43
2021/06/30 01:28:46;;;;;;;2.97;2.35;;;15.80;99.90;;;;;;4953909;28;20243;-42
2021/06/30 01:31:19;;;;;;;2.08;1.98;;;15.80;99.90;;;;;;4953915;28;20632;-45
2021/06/30 01:33:52;;;;;;;2.35;2.15;;;15.80;99.90;;;;;;4953719;28;20318;-42
2021/06/30 01:36:24;;;;;;;2.78;2.58;;;15.80;99.90;;;;;;4953886;28;20211;-44
2021/06/30 01:38:59;;;;;;;2.97;1.92;;;15.80;99.90;;;;;;4953705;28;20250;-42
2021/06/30 01:41:31;;;;;;;2.08;1.83;;;15.80;99.90;;;;;;4953757;28;20210;-42
2021/06/30 01:44:05;;;;;;;4.22;2.70;;;15.80;99.90;;;;;;4953932;28;20212;-43
2021/06/30 01:46:39;;;;;;;2.30;2.10;;;15.70;99.90;;;;;;4953710;28;20325;-44
2021/06/30 01:49:11;;;;;;;2.92;2.50;;;15.70;99.90;;;;;;4953458;28;20246;-42
2021/06/30 01:51:44;;;;;;;3.15;2.20;;;15.70;99.90;;;;;;4953646;28;20290;-43
2021/06/30 01:54:19;;;;;;;2.60;2.40;;;15.70;99.90;;;;;;4956238;28;20239;-43
2021/06/30 01:56:52;;;;;;;4.03;2.90;;;15.60;99.90;;;;;;4957219;28;20211;-46
2021/06/30 01:59:25;;;;;;;3.47;3.17;;;15.60;99.90;;;;;;4957327;28;20306;-42
2021/06/30 02:01:58;;;;;;;2.97;2.78;;;15.60;99.90;;;;;;4957349;28;20262;-42
2021/06/30 02:04:27;;;;;;;2.78;2.58;;;15.60;99.90;;;;;;4957519;28;20219;-42
2021/06/30 02:06:59;;;;;;;3.40;3.10;;;15.50;99.90;;;;;;4957038;28;20313;-43
2021/06/30 02:09:34;;;;;;;3.17;2.90;;;15.50;99.90;;;;;;4957051;28;20670;-43
2021/06/30 02:12:07;;;;;;;3.05;2.45;;;15.50;99.90;;;;;;4957010;28;20234;-44
2021/06/30 02:14:40;;;;;;;1.98;1.88;;;15.50;99.90;;;;;;4957205;28;20242;-43
2021/06/30 02:17:16;;;;;;;2.20;2.00;;;15.40;99.90;;;;;;4956899;28;20224;-42
2021/06/30 02:19:49;;;;;;;2.30;2.00;;;15.40;99.90;;;;;;4956936;28;20642;-43
2021/06/30 02:22:22;;;;;;;1.95;1.77;;;15.40;99.90;;;;;;4956921;28;20298;-43
2021/06/30 02:24:58;;;;;;;1.67;1.58;;;15.30;99.90;;;;;;4956717;28;20660;-44
2021/06/30 02:27:31;;;;;;;2.10;1.80;;;15.30;99.90;;;;;;4956780;28;20235;-43
2021/06/30 02:30:05;;;;;;;1.50;1.40;;;15.20;99.90;;;;;;4956820;28;20215;-42
2021/06/30 02:32:38;;;;;;;2.65;1.50;;;15.20;99.90;;;;;;4956280;28;20243;-45
2021/06/30 02:35:17;;;;;;;1.27;1.17;;;15.20;99.90;;;;;;4956480;28;20211;-45
2021/06/30 02:37:52;;;;;;;1.80;1.45;;;15.10;99.90;;;;;;4956330;28;20267;-43
2021/06/30 02:40:29;;;;;;;1.30;1.15;;;15.10;99.90;;;;;;4956486;28;20266;-44
2021/06/30 02:43:02;;;;;;;1.27;1.08;;;15.10;99.90;;;;;;4956416;28;20215;-43
2021/06/30 02:45:35;;;;;;;2.33;0.95;;;15.00;99.90;;;;;;4956206;28;20238;-45
2021/06/30 02:48:08;;;;;;;1.20;1.10;;;15.00;99.90;;;;;;4956432;28;20254;-43
2021/06/30 02:50:41;;;;;;;1.00;1.00;;;15.00;99.90;;;;;;4956278;28;20247;-45
2021/06/30 02:53:13;;;;;;;1.27;1.05;;;15.00;99.90;;;;;;4956267;28;20310;-45
2021/06/30 02:55:48;;;;;;;2.67;1.20;;;15.00;99.90;;;;;;4956262;28;20219;-43
2021/06/30 02:58:21;;;;;;;1.90;1.55;;;15.00;99.90;;;;;;4956008;28;20227;-43
2021/06/30 03:00:54;;;;;;;1.15;1.00;;;15.00;99.90;;;;;;4955921;28;20730;-43
2021/06/30 03:03:27;;;;;;;1.15;1.05;;;14.90;99.90;;;;;;4955911;28;20696;-42
2021/06/30 03:06:00;;;;;;;0.70;0.70;;;14.90;99.90;;;;;;4955959;28;20215;-42
2021/06/30 03:08:33;;;;;;;1.60;1.10;;;14.90;99.90;;;;;;4956024;28;20621;-44
2021/06/30 03:11:07;;;;;;;1.10;1.00;;;14.90;99.90;;;;;;4955989;28;20247;-44
2021/06/30 03:13:40;;;;;;;1.02;0.93;;;14.90;99.90;;;;;;4955916;28;20305;-42
2021/06/30 03:16:14;;;;;;;1.27;0.95;;;14.80;99.90;;;;;;4955924;28;20675;-42
2021/06/30 03:18:47;;;;;;;1.35;0.60;;;14.80;99.90;;;;;;4955952;28;20223;-41
2021/06/30 03:21:20;;;;;;;1.15;0.75;;;14.80;99.90;;;;;;4955636;28;20215;-42
2021/06/30 03:23:53;;;;;;;1.27;1.17;;;14.70;99.90;;;;;;4955832;28;20293;-42
2021/06/30 03:26:28;;;;;;;1.10;1.00;;;14.70;99.90;;;;;;4955770;28;20235;-44
2021/06/30 03:29:02;;;;;;;0.60;0.60;;;14.70;99.90;;;;;;4955619;28;20737;-42
2021/06/30 03:31:36;;;;;;;1.55;0.90;;;14.70;99.90;;;;;;4955541;28;20635;-45
2021/06/30 03:34:08;;;;;;;1.27;0.93;;;14.70;99.90;;;;;;4955679;28;20243;-42
2021/06/30 03:36:41;;;;;;;0.60;0.60;;;14.60;99.90;;;;;;4955475;28;20635;-44
2021/06/30 03:39:14;;;;;;;0.60;0.60;;;14.60;99.90;;;;;;4955230;28;20270;-44
2021/06/30 03:41:48;;;;;;;1.63;0.77;;;14.60;99.90;;;;;;4955312;28;20250;-42
2021/06/30 03:44:21;;;;;;;0.50;0.50;;;14.60;99.90;;;;;;4955569;28;20238;-42
2021/06/30 03:46:54;;;;;;;0.80;0.60;;;14.60;99.90;;;;;;4955475;28;20302;-43
2021/06/30 03:49:27;;;;;;;1.40;0.70;;;14.60;99.90;;;;;;4955229;28;20278;-42
2021/06/30 03:52:00;;;;;;;0.68;0.65;;;14.60;99.90;;;;;;4954906;28;20698;-43
2021/06/30 03:54:33;;;;;;;1.40;0.45;;;14.50;99.90;;;;;;4954957;28;20352;-42
2021/06/30 03:57:07;;;;;;;0.63;0.63;;;14.50;99.90;;;;;;4955071;28;20258;-42
2021/06/30 03:59:40;;;;;;;0.60;0.60;;;14.50;99.90;;;;;;4954976;28;20571;-42
2021/06/30 04:02:13;;;;;;;1.63;0.30;;;14.60;99.90;;;;;;4954416;28;20242;-42
2021/06/30 04:04:46;;;;;;;0.82;0.50;;;14.50;99.90;;;;;;4954327;28;20632;-43
2021/06/30 04:07:19;;;;;;;0.55;0.43;;;14.50;99.90;;;;;;4954694;28;20247;-43
2021/06/30 04:09:52;;;;;;;1.80;0.50;;;14.40;99.90;;;;;;4954802;28;20207;-42
2021/06/30 04:12:26;;;;;;;0.68;0.60;;;14.40;99.90;;;;;;4954866;28;20212;-43
2021/06/30 04:14:58;;;;;;;0.68;0.50;;;14.40;99.90;;;;;;4954317;28;20306;-45
2021/06/30 04:17:31;;;;;;;0.60;0.60;;;14.40;99.90;;;;;;4953865;28;20577;-44
2021/06/30 04:20:06;;;;;;;2.05;0.50;;;14.40;99.90;;;;;;4954121;28;20234;-45
2021/06/30 04:22:39;;;;;;;0.70;0.45;;;14.40;99.90;;;;;;4954577;28;20203;-43
2021/06/30 04:25:12;;;;;;;1.25;0.73;;;14.40;99.90;;;;;;4954532;28;20245;-46
2021/06/30 04:27:46;;;;;;;0.65;0.50;;;14.40;99.90;;;;;;4954883;28;20769;-45
2021/06/30 04:30:19;;;;;;;2.58;0.60;;;14.40;99.90;;;;;;4954529;28;20237;-43
2021/06/30 04:32:52;;;;;;;1.73;0.80;;;14.50;99.90;;;;;;4954581;28;20326;-44
2021/06/30 04:35:25;;;;;;;0.60;0.47;;;14.50;99.90;;;;;;4954534;28;20663;-44
2021/06/30 04:37:58;;;;;;;2.45;0.55;;;14.60;99.90;;;;;;4954310;28;20257;-44
2021/06/30 04:40:26;;;;;;;1.15;0.47;;;14.70;99.90;;;;;;4954112;28;20238;-42
2021/06/30 04:43:00;;;;;;;0.77;0.30;;;14.70;99.90;;;;;;4954063;28;20311;-44
2021/06/30 04:45:33;;;;;;;0.52;0.40;;;14.70;99.90;;;;;;4954355;28;20662;-42
2021/06/30 04:48:06;;;;;;;0.30;0.30;;;14.70;99.90;;;;;;4954239;28;20211;-41
2021/06/30 04:50:39;;;;;;;0.43;0.40;;;14.70;99.90;;;;;;4954190;28;20247;-41
2021/06/30 04:53:13;;;;;;;0.82;0.40;;;14.70;99.90;;;;;;4954272;28;20287;-41
2021/06/30 04:55:46;;;;;;;0.22;0.22;;;14.80;99.90;;;;;;4954450;28;20306;-45
2021/06/30 04:58:20;;;;;;;0.93;0.25;;;14.80;99.90;;;;;;4954190;28;20569;-46
2021/06/30 05:00:54;;;;;;;0.32;0.32;;;14.80;99.90;;;;;;4954056;28;20310;-42
2021/06/30 05:03:29;;;;;;;0.50;0.30;;;14.80;99.90;;;;;;4954100;28;20211;-43
2021/06/30 05:06:01;;;;;;;0.20;0.20;;;14.80;99.90;;;;;;4954340;28;20294;-47
2021/06/30 05:08:34;;;;;;;0.20;0.20;;;14.90;99.90;;;;;;4954180;28;20295;-45
2021/06/30 05:11:07;;;;;;;0.85;0.47;;;15.00;99.90;;;;;;4953565;28;20211;-45
2021/06/30 05:13:41;;;;;;;0.60;0.30;;;15.10;99.90;;;;;;4953958;28;20354;-48
2021/06/30 05:16:14;;;;;;;0.40;0.40;;;15.10;99.90;;;;;;4954102;28;20315;-47
2021/06/30 05:18:47;;;;;;;0.73;0.47;;;15.10;99.90;;;;;;4954040;28;20266;-43
2021/06/30 05:21:21;;;;;;;0.30;0.30;;;15.10;99.90;;;;;;4954606;28;20266;-47
2021/06/30 05:23:54;;;;;;;0.30;0.30;;;15.20;99.90;;;;;;4953833;28;20214;-45
2021/06/30 05:26:26;;;;;;;0.60;0.50;;;15.20;99.90;;;;;;4954169;28;20226;-46
2021/06/30 05:29:01;;;;;;;1.83;0.40;;;15.20;99.90;;;;;;4956081;28;20416;-46
2021/06/30 05:31:35;;;;;;;0.88;0.40;;;15.20;99.90;;;;;;4957888;28;20246;-47
2021/06/30 05:34:07;;;;;;;0.98;0.30;;;15.20;99.90;;;;;;4957810;28;20298;-45
2021/06/30 05:36:47;;;;;;;0.70;0.60;;;15.30;99.90;;;;;;4957777;28;20211;-46
2021/06/30 05:39:21;;;;;;;0.40;0.40;;;15.30;99.90;;;;;;4957526;28;20235;-43
2021/06/30 05:41:54;;;;;;;0.95;0.55;;;15.40;99.90;;;;;;4957440;28;20293;-45
2021/06/30 05:44:28;;;;;;;1.92;0.47;;;15.40;99.90;;;;;;4957524;28;20302;-45
2021/06/30 05:47:01;;;;;;;0.57;0.40;;;15.40;99.90;;;;;;4957770;28;20218;-43
2021/06/30 05:49:34;;;;;;;0.52;0.52;;;15.40;99.90;;;;;;4957238;28;20270;-43
2021/06/30 05:52:07;;;;;;;2.72;0.50;;;15.50;99.90;;;;;;4957513;28;20211;-49
2021/06/30 05:54:40;;;;;;;0.60;0.40;;;15.50;99.90;;;;;;4956919;28;20215;-43
2021/06/30 05:57:13;;;;;;;0.55;0.40;;;15.50;99.90;;;;;;4957101;28;20349;-42
2021/06/30 05:59:47;;;;;;;0.90;0.40;;;15.50;99.90;;;;;;4957082;28;20266;-46
2021/06/30 06:02:20;;;;;;;0.43;0.43;;;15.40;99.90;;;;;;4957226;28;20630;-43
2021/06/30 06:04:53;;;;;;;0.47;0.47;;;15.30;99.90;;;;;;4957142;28;20287;-43
2021/06/30 06:07:26;;;;;;;0.70;0.50;;;15.20;99.90;;;;;;4956948;28;20235;-44
2021/06/30 06:09:59;;;;;;;0.75;0.60;;;15.20;99.90;;;;;;4957113;28;20378;-46
2021/06/30 06:12:32;;;;;;;0.68;0.47;;;15.20;99.90;;;;;;4957093;28;20215;-43
2021/06/30 06:15:09;;;;;;;1.40;0.40;;;15.30;99.90;;;;;;4956976;28;20254;-42
2021/06/30 06:17:42;;;;;;;0.57;0.40;;;15.40;99.90;;;;;;4957097;28;20245;-41
2021/06/30 06:20:15;;;;;;;1.23;0.43;;;15.50;99.90;;;;;;4956981;28;20259;-43
2021/06/30 06:22:48;;;;;;;0.55;0.50;;;15.60;99.90;;;;;;4956931;28;20315;-40
2021/06/30 06:25:21;;;;;;;0.70;0.50;;;15.80;99.90;;;;;;4956924;28;20648;-43
2021/06/30 06:27:54;;;;;;;0.82;0.60;;;15.90;99.90;;;;;;4956705;28;20238;-42
2021/06/30 06:30:29;;;;;;;0.55;0.30;;;16.00;99.90;;;;;;4956875;28;20238;-42
2021/06/30 06:33:02;;;;;;;1.17;0.40;;;16.10;99.90;;;;;;4956675;29;20282;-43
2021/06/30 06:35:37;;;;;;;0.35;0.30;;;16.20;99.90;;;;;;4956788;28;20211;-52
2021/06/30 06:38:09;;;;;;;0.50;0.38;;;16.40;99.90;;;;;;4956385;28;20289;-48
2021/06/30 06:40:43;;;;;;;1.75;0.60;;;16.40;99.90;;;;;;4955590;28;20314;-45
2021/06/30 06:43:16;;;;;;;0.35;0.32;;;16.50;99.90;;;;;;4956364;28;20274;-44
2021/06/30 06:45:50;;;;;;;0.63;0.45;;;16.60;99.90;;;;;;4955878;28;20246;-44
2021/06/30 06:48:23;;;;;;;0.50;0.50;;;16.70;99.90;;;;;;4956068;28;20211;-47
2021/06/30 06:50:56;;;;;;;1.88;0.40;;;16.70;99.90;;;;;;4955908;28;20298;-48
2021/06/30 06:53:29;;;;;;;1.60;0.60;;;16.70;99.90;;;;;;4956120;28;20283;-48
2021/06/30 06:56:08;;;;;;;0.40;0.40;;;16.70;99.90;;;;;;4955905;28;20634;-48
2021/06/30 06:58:41;;;;;;;0.75;0.40;;;16.60;99.90;;;;;;4955937;28;20505;-45
2021/06/30 07:01:15;;;;;;;0.40;0.40;;;16.50;99.90;;;;;;4955600;28;20228;-46
2021/06/30 07:03:48;;;;;;;1.00;0.75;;;16.60;99.90;;;;;;4955773;28;20301;-43
2021/06/30 07:06:20;;;;;;;0.65;0.30;;;16.70;99.90;;;;;;4955753;28;20208;-43
2021/06/30 07:08:53;;;;;;;3.22;0.50;;;16.90;99.90;;;;;;4955640;28;20211;-46
2021/06/30 07:11:26;;;;;;;0.20;0.20;;;17.00;99.90;;;;;;4955732;28;20212;-44
2021/06/30 07:13:59;;;;;;;0.77;0.40;;;17.30;99.90;;;;;;4955659;28;20212;-44
2021/06/30 07:16:33;;;;;;;0.57;0.43;;;17.60;99.90;;;;;;4955934;28;20633;-47
2021/06/30 07:19:06;;;;;;;0.93;0.73;;;17.90;99.90;;;;;;4955812;28;20207;-47
2021/06/30 07:21:39;;;;;;;0.60;0.60;;;18.20;99.90;;;;;;4955296;28;20777;-44
2021/06/30 07:24:12;;;;;;;1.05;0.50;;;18.30;99.90;;;;;;4955457;28;20330;-50
2021/06/30 07:26:44;;;;;;;2.58;0.50;;;18.20;99.90;;;;;;4955442;28;20207;-48
2021/06/30 07:29:17;;;;;;;0.30;0.30;;;18.10;99.90;;;;;;4955704;28;20218;-48
2021/06/30 07:31:54;;;;;;;0.47;0.40;;;18.10;99.90;;;;;;4955472;28;20219;-43
2021/06/30 07:34:26;;;;;;;0.25;0.20;;;18.00;99.90;;;;;;4955518;28;20207;-44
2021/06/30 07:36:59;;;;;;;1.60;0.95;;;17.90;99.90;;;;;;4955323;28;20212;-45
2021/06/30 07:39:32;;;;;;;1.05;0.40;;;17.80;99.90;;;;;;4955235;28;20207;-43
2021/06/30 07:42:05;;;;;;;1.25;0.57;;;17.70;99.90;;;;;;4955384;28;20606;-46
2021/06/30 07:44:38;;;;;;;0.82;0.30;;;17.50;99.90;;;;;;4955313;28;20274;-45
2021/06/30 07:47:10;;;;;;;0.65;0.30;;;17.50;99.90;;;;;;4955141;28;20359;-46
2021/06/30 07:49:38;;;;;;;2.80;2.03;;;17.50;99.90;;;;;;4954991;28;20416;-46
2021/06/30 07:52:06;;;;;;;2.88;2.38;;;17.70;99.90;;;;;;4953358;28;20786;-43
2021/06/30 07:54:34;;;;;;;1.70;1.30;;;18.10;99.90;;;;;;4955042;28;20243;-46
2021/06/30 07:57:02;;;;;;;0.52;0.50;;;18.20;99.90;;;;;;4955153;28;20294;-45
2021/06/30 07:59:30;;;;;;;1.52;1.40;;;18.30;99.90;;;;;;4955948;28;20235;-45
2021/06/30 08:01:58;;;;;;;0.90;0.80;;;18.40;99.90;;;;;;4954777;28;20235;-42
2021/06/30 08:04:27;;;;;;;1.27;0.60;;;18.50;99.90;;;;;;4954986;28;20275;-45
2021/06/30 08:06:55;;;;;;;1.70;0.68;;;18.50;99.90;;;;;;4955719;28;20216;-47
2021/06/30 08:09:23;;;;;;;0.57;0.50;;;18.50;99.90;;;;;;4955157;28;20254;-48
2021/06/30 08:11:59;;;;;;;1.08;0.80;;;18.50;99.90;;;;;;4955414;28;20641;-44
2021/06/30 08:14:27;;;;;;;1.83;1.55;;;18.50;99.90;;;;;;4954667;28;20215;-43
2021/06/30 08:16:55;;;;;;;2.22;0.75;;;18.70;99.90;;;;;;4954585;28;20311;-45
2021/06/30 08:19:23;;;;;;;1.08;0.73;;;18.90;99.90;;;;;;4954624;28;20305;-45
2021/06/30 08:21:52;;;;;;;0.80;0.80;;;19.00;99.90;;;;;;4955101;28;20231;-42
2021/06/30 08:24:21;;;;;;;0.50;0.50;;;19.00;99.90;;;;;;4954750;28;20238;-42
2021/06/30 08:26:49;;;;;;;0.47;0.40;;;19.00;99.90;;;;;;4954500;28;20222;-45
2021/06/30 08:29:19;;;;;;;0.82;0.30;;;19.00;99.90;;;;;;4954204;28;20226;-43
2021/06/30 08:31:48;;;;;;;0.70;0.70;;;19.20;99.90;;;;;;4954492;28;20573;-48
2021/06/30 08:34:17;;;;;;;0.57;0.57;;;19.30;99.90;;;;;;4954445;28;20218;-42
2021/06/30 08:36:44;;;;;;;0.50;0.43;;;19.20;99.90;;;;;;4954228;28;20298;-42
2021/06/30 08:39:14;;;;;;;0.65;0.60;;;19.20;99.90;;;;;;4954259;28;20236;-45
2021/06/30 08:41:42;;;;;;;0.60;0.50;;;19.10;99.90;;;;;;4953922;28;20263;-45
2021/06/30 08:44:10;;;;;;;0.75;0.45;;;19.10;99.90;;;;;;4954298;28;20239;-45
2021/06/30 08:46:40;;;;;;;2.30;1.25;;;19.10;99.90;;;;;;4954252;28;20212;-43
2021/06/30 08:49:09;;;;;;;1.88;0.60;;;19.00;99.90;;;;;;4954219;28;20315;-44
2021/06/30 08:51:39;;;;;;;1.38;0.95;;;19.10;99.90;;;;;;4954442;28;20306;-44
2021/06/30 08:54:08;;;;;;;0.68;0.68;;;19.10;99.90;;;;;;4953821;28;20307;-46
2021/06/30 08:56:40;;;;;;;0.40;0.40;;;19.00;99.90;;;;;;4953871;28;20211;-43
2021/06/30 08:59:08;;;;;;;0.43;0.20;;;18.90;99.90;;;;;;4953628;28;20713;-44
2021/06/30 09:01:36;;;;;;;0.50;0.40;;;18.80;99.90;;;;;;4953559;28;20330;-41
2021/06/30 09:04:06;;;;;;;1.20;0.70;;;18.80;99.90;;;;;;4953571;28;20599;-42
2021/06/30 09:06:34;;;;;;;0.55;0.55;;;18.80;99.90;;;;;;4953755;28;20254;-42
2021/06/30 09:09:06;;;;;;;0.45;0.45;;;18.70;99.90;;;;;;4953880;28;20294;-42
2021/06/30 09:11:35;;;;;;;0.30;0.30;;;18.70;99.90;;;;;;4954079;28;20303;-47
2021/06/30 09:14:17;;;;;;;1.00;0.70;;;18.80;99.90;;;;;;4953758;28;20306;-43
2021/06/30 09:16:59;;;;;;;0.40;0.30;;;19.10;99.90;;;;;;4953757;28;20683;-45
2021/06/30 09:19:47;;;;;;;0.32;0.32;;;19.40;99.10;;;;;;4953794;28;20302;-43
2021/06/30 09:22:15;;;;;;;1.48;0.30;;;19.60;98.50;;;;;;4953790;28;20310;-45
2021/06/30 09:24:44;;;;;;;2.75;0.57;;;19.60;98.50;;;;;;4953677;28;20221;-42
2021/06/30 09:27:14;;;;;;;0.88;0.60;;;19.70;98.50;;;;;;4953866;28;20319;-46
2021/06/30 09:29:45;;;;;;;0.30;0.25;;;19.70;98.50;;;;;;4953744;28;20588;-42
2021/06/30 09:32:15;;;;;;;2.38;1.17;;;19.70;98.50;;;;;;4953524;28;20721;-43
2021/06/30 09:34:43;;;;;;;1.00;0.82;;;19.60;98.50;;;;;;4953823;28;20774;-42
2021/06/30 09:37:11;;;;;;;0.55;0.32;;;19.70;98.30;;;;;;4953697;28;20265;-42
2021/06/30 09:39:54;;;;;;;0.57;0.57;;;19.70;98.10;;;;;;4953800;28;20215;-42
2021/06/30 09:42:30;;;;;;;0.57;0.50;;;19.60;97.90;;;;;;4953740;28;20231;-44
2021/06/30 09:45:12;;;;;;;2.42;1.40;;;19.70;97.40;;;;;;4953686;28;20257;-43
2021/06/30 09:47:45;;;;;;;1.42;0.93;;;19.80;97.30;;;;;;4953433;28;20302;-42
2021/06/30 09:50:14;;;;;;;1.23;1.00;;;19.80;97.40;;;;;;4953369;28;20770;-44
2021/06/30 09:52:45;;;;;;;0.77;0.77;;;19.70;97.50;;;;;;4953293;28;20246;-43
2021/06/30 09:55:28;;;;;;;2.40;0.70;;;19.60;97.70;;;;;;4953764;28;20307;-43
2021/06/30 09:57:58;;;;;;;2.20;1.20;;;19.50;97.50;;;;;;4953398;28;20307;-43
2021/06/30 10:00:29;;;;;;;2.60;0.50;;;19.50;97.90;;;;;;4953223;28;20247;-43
2021/06/30 10:02:58;;;;;;;0.52;0.50;;;19.50;97.80;;;;;;4953204;28;20231;-44
2021/06/30 10:05:29;;;;;;;2.80;0.77;;;19.50;97.60;;;;;;4953340;28;20286;-43
2021/06/30 10:08:11;;;;;;;0.80;0.80;;;19.60;97.50;;;;;;4953333;28;20212;-43
2021/06/30 10:10:40;;;;;;;0.98;0.60;;;19.70;97.40;;;;;;4953342;28;20667;-47
2021/06/30 10:13:08;;;;;;;2.72;0.55;;;19.80;97.50;;;;;;4953212;28;20235;-43
2021/06/30 10:15:41;;;;;;;0.70;0.30;;;19.90;97.40;;;;;;4956124;28;20219;-44
2021/06/30 10:18:09;;;;;;;1.02;0.70;;;19.90;97.20;;;;;;4956819;28;20208;-48
2021/06/30 10:20:41;;;;;;;0.50;0.50;;;19.70;97.30;;;;;;4956579;28;20237;-43
2021/06/30 10:23:09;;;;;;;0.57;0.55;;;19.60;97.50;;;;;;4956391;29;20231;-44
2021/06/30 10:25:38;;;;;;;1.33;0.77;;;19.40;97.90;;;;;;4956394;28;20646;-44
2021/06/30 10:28:07;;;;;;;0.70;0.70;;;19.30;98.10;;;;;;4956791;28;20564;-44
2021/06/30 10:30:36;;;;;;;1.77;1.25;;;19.30;98.20;;;;;;4956444;28;20762;-44
2021/06/30 10:33:05;;;;;;;1.75;0.63;;;19.30;98.30;;;;;;4956532;28;20318;-43
2021/06/30 10:35:45;;;;;;;1.02;0.63;;;19.40;98.20;;;;;;4956510;28;20598;-45
2021/06/30 10:38:13;;;;;;;0.57;0.52;;;19.40;98.10;;;;;;4955952;28;20215;-44
2021/06/30 10:40:41;;;;;;;1.08;0.63;;;19.50;98.00;;;;;;4956058;28;20207;-44
2021/06/30 10:43:12;;;;;;;1.25;0.70;;;19.70;97.90;;;;;;4956266;28;20235;-46
2021/06/30 10:45:40;;;;;;;1.75;0.40;;;19.90;97.60;;;;;;4956285;28;20318;-47
2021/06/30 10:48:13;;;;;;;3.05;1.08;;;20.20;97.00;;;;;;4956114;28;20222;-44
2021/06/30 10:50:43;;;;;;;3.17;0.52;;;20.40;96.50;;;;;;4955962;28;20211;-45
2021/06/30 10:53:36;;;;;;;1.08;0.98;;;20.50;96.20;;;;;;4956100;28;20203;-44
2021/06/30 10:56:10;;;;;;;1.20;0.60;;;20.50;96.10;;;;;;4956368;28;20340;-44
2021/06/30 10:58:43;;;;;;;0.65;0.40;;;20.60;95.30;;;;;;4956004;28;20220;-46
2021/06/30 11:01:16;;;;;;;4.70;1.55;;;20.70;95.40;;;;;;4955904;28;20243;-45
2021/06/30 11:03:54;;;;;;;0.63;0.50;;;20.80;95.00;;;;;;4955822;28;20238;-44
2021/06/30 11:06:34;;;;;;;0.70;0.70;;;20.90;94.60;;;;;;4955980;28;20294;-45
2021/06/30 11:09:07;;;;;;;1.15;0.68;;;21.00;94.40;;;;;;4955918;28;20310;-50
2021/06/30 11:12:02;;;;;;;2.55;0.50;;;21.00;94.20;;;;;;4955910;28;20298;-46
2021/06/30 11:14:48;;;;;;;2.38;0.85;;;20.90;93.50;;;;;;4955969;28;20216;-46
2021/06/30 11:17:36;;;;;;;0.60;0.50;;;20.80;93.80;;;;;;4955850;28;20616;-46
2021/06/30 11:20:06;;;;;;;0.70;0.30;;;20.90;93.90;;;;;;4955431;28;20660;-46
2021/06/30 11:22:34;;;;;;;0.45;0.45;;;21.00;94.10;;;;;;4955756;28;20235;-46
2021/06/30 11:25:06;;;;;;;0.57;0.38;;;21.20;94.00;;;;;;4955570;28;20568;-47
2021/06/30 11:27:43;;;;;;;0.35;0.30;;;21.30;93.80;;;;;;4955255;28;20402;-46
2021/06/30 11:30:13;;;;;;;0.60;0.50;;;21.60;93.30;;;;;;4955261;28;20211;-48
2021/06/30 11:32:46;;;;;;;0.30;0.30;;;21.80;93.10;;;;;;4955174;28;20231;-48
2021/06/30 11:35:36;;;;;;;0.35;0.30;;;21.90;92.80;;;;;;4955363;28;20218;-48
2021/06/30 11:38:11;;;;;;;0.77;0.50;;;21.90;92.40;;;;;;4953840;28;20302;-46
2021/06/30 11:40:43;;;;;;;0.93;0.40;;;22.00;92.60;;;;;;4955511;28;20219;-46
2021/06/30 11:43:13;;;;;;;1.65;0.50;;;22.20;92.30;;;;;;4955306;28;20582;-45
2021/06/30 11:45:42;;;;;;;1.33;0.60;;;22.30;92.20;;;;;;4955247;28;20216;-46
2021/06/30 11:48:12;;;;;;;0.30;0.30;;;22.40;92.20;;;;;;4955203;28;20215;-47
2021/06/30 11:50:55;;;;;;;1.23;0.93;;;22.60;91.80;;;;;;4954858;28;20232;-48
2021/06/30 11:53:45;;;;;;;0.73;0.38;;;22.70;90.70;;;;;;4954721;28;20746;-47
2021/06/30 11:56:16;;;;;;;0.20;0.20;;;22.70;90.60;;;;;;4955013;28;20254;-47
2021/06/30 11:58:51;;;;;;;0.30;0.30;;;22.60;91.00;;;;;;4955123;28;20216;-47
2021/06/30 12:01:21;;;;;;;1.45;0.57;;;22.40;91.20;;;;;;4954744;28;20306;-46
2021/06/30 12:03:50;;;;;;;0.40;0.25;;;22.30;91.50;;;;;;4954463;28;20227;-46
2021/06/30 12:06:24;;;;;;;1.13;0.32;;;22.30;91.40;;;;;;4954852;28;20630;-51
2021/06/30 12:09:06;;;;;;;1.52;0.50;;;22.30;91.30;;;;;;4954612;28;20311;-47
2021/06/30 12:11:35;;;;;;;0.93;0.50;;;22.40;90.90;;;;;;4954547;28;20294;-48
2021/06/30 12:14:08;;;;;;;0.40;0.40;;;22.30;91.40;;;;;;4954440;28;20207;-46
2021/06/30 12:16:41;;;;;;;0.30;0.30;;;22.50;91.30;;;;;;4954705;28;20294;-49
2021/06/30 12:19:10;;;;;;;0.70;0.65;;;22.50;91.00;;;;;;4954539;28;20679;-50
2021/06/30 12:21:41;;;;;;;1.10;0.52;;;22.50;91.10;;;;;;4954265;28;20696;-47
2021/06/30 12:24:14;;;;;;;1.75;0.70;;;22.30;91.20;;;;;;4954297;28;20321;-48
2021/06/30 12:27:06;;;;;;;1.75;0.82;;;22.10;91.90;;;;;;4954102;28;20246;-47
2021/06/30 12:29:37;;;;;;;0.63;0.60;;;21.80;92.10;;;;;;4954137;28;20701;-46
2021/06/30 12:32:07;;;;;;;0.43;0.40;;;21.60;92.50;;;;;;4954303;28;20219;-50
2021/06/30 12:34:35;;;;;;;0.40;0.40;;;21.30;92.80;;;;;;4954231;28;20563;-48
2021/06/30 12:37:05;;;;;;;0.68;0.68;;;21.10;93.30;;;;;;4953404;28;20218;-49
2021/06/30 12:39:39;;;;;;;0.75;0.75;;;21.00;93.40;;;;;;4953983;28;20266;-45
2021/06/30 12:42:09;;;;;;;1.35;0.60;;;21.00;93.50;;;;;;4953869;28;20372;-45
2021/06/30 12:44:57;;;;;;;1.15;0.52;;;21.20;93.50;;;;;;4953795;28;20265;-47
2021/06/30 12:47:26;;;;;;;1.55;0.50;;;21.30;93.20;;;;;;4954069;28;20306;-51
2021/06/30 12:50:00;;;;;;;1.65;0.52;;;21.40;93.10;;;;;;4954229;28;20211;-49
2021/06/30 12:52:30;;;;;;;1.00;0.80;;;21.30;93.00;;;;;;4953615;28;20688;-46
2021/06/30 12:55:08;;;;;;;0.30;0.30;;;21.00;93.10;;;;;;4953905;28;20207;-47
2021/06/30 12:57:55;;;;;;;1.77;1.08;;;20.90;93.40;;;;;;4953887;28;20298;-48
2021/06/30 13:00:24;;;;;;;2.35;0.98;;;20.60;93.80;;;;;;4953885;28;20290;-45
2021/06/30 13:03:14;;;;;;;0.95;0.70;;;20.60;94.10;;;;;;4953949;28;20259;-45
2021/06/30 13:05:45;;;;;;;0.65;0.50;;;20.60;94.10;;;;;;4953751;29;20583;-45
2021/06/30 13:08:35;;;;;;;1.77;1.67;;;20.80;93.70;;;;;;4953655;28;20211;-43
2021/06/30 13:11:18;;;;;;;0.95;0.70;;;21.00;93.20;;;;;;4954063;28;20310;-44
2021/06/30 13:14:01;;;;;;;0.93;0.50;;;21.40;92.40;;;;;;4953570;28;20286;-43
2021/06/30 13:16:30;;;;;;;1.23;0.70;;;21.60;92.00;;;;;;4953478;28;20215;-47
2021/06/30 13:19:01;;;;;;;0.75;0.43;;;21.90;91.60;;;;;;4953511;28;20211;-44